Time;durP1;ratioP1;P1;durP2;ratioP2;P2;SDS_P1;SDS_P2;PMS_P1;PMS_P2;Temp;Humidity;BMP_temperature;BMP_pressure;BME280_temperature;BME280_humidity;BME280_pressure;Samples;Min_cycle;Max_cycle;Signal;HPM_P1;HPM_P2
2023/10/08 00:02:34;;;;;;;25.92;13.82;;;;;;;24.29;71.68;99809.81;4898957;29;20055;-81
2023/10/08 00:05:18;;;;;;;27.88;13.85;;;;;;;24.16;72.26;99815.69;4886711;29;20063;-81
2023/10/08 00:08:04;;;;;;;31.70;12.95;;;;;;;24.27;72.09;99809.28;4899411;29;20578;-82
2023/10/08 00:10:49;;;;;;;25.50;13.82;;;;;;;24.23;72.25;99800.94;4898902;29;20046;-82
2023/10/08 00:13:39;;;;;;;29.95;12.90;;;;;;;24.26;71.91;99802.31;4888731;29;20050;-83
2023/10/08 00:16:23;;;;;;;28.25;13.07;;;;;;;24.21;72.20;99802.31;4890949;29;20615;-83
2023/10/08 00:19:08;;;;;;;24.35;12.18;;;;;;;24.22;72.49;99804.72;4899602;29;20517;-83
2023/10/08 00:21:53;;;;;;;30.88;12.88;;;;;;;24.07;72.67;99797.44;4904836;29;20050;-81
2023/10/08 00:24:40;;;;;;;26.83;13.75;;;;;;;24.12;72.35;99807.38;4888728;29;20188;-80
2023/10/08 00:27:25;;;;;;;28.58;12.65;;;;;;;24.02;72.53;99799.31;4904674;29;20051;-81
2023/10/08 00:30:17;;;;;;;25.67;12.88;;;;;;;24.03;72.83;99823.19;4905569;29;20510;-82
2023/10/08 00:33:04;;;;;;;31.00;13.55;;;;;;;24.06;72.86;99837.94;4899491;29;20059;-82
2023/10/08 00:35:48;;;;;;;29.92;13.18;;;;;;;24.03;73.30;99850.00;4888968;29;20111;-82
2023/10/08 00:38:32;;;;;;;32.10;13.90;;;;;;;23.91;73.41;99850.22;4904099;29;20043;-82
2023/10/08 00:41:21;;;;;;;25.70;13.05;;;;;;;23.95;73.15;99853.97;4903986;29;20047;-82
2023/10/08 00:44:22;;;;;;;30.73;14.73;;;;;;;23.94;73.47;99868.47;4901228;29;20100;-83
2023/10/08 00:47:06;;;;;;;31.55;13.98;;;;;;;23.81;73.65;99875.13;4901025;29;20403;-82
2023/10/08 00:50:08;;;;;;;32.38;13.93;;;;;;;23.62;74.27;99882.00;4888084;29;20070;-81
2023/10/08 00:53:01;;;;;;;32.88;12.65;;;;;;;23.72;74.27;99892.75;4905997;29;20040;-82
2023/10/08 00:55:53;;;;;;;36.37;13.90;;;;;;;23.63;74.70;99889.75;4903274;29;20044;-82
2023/10/08 00:58:37;;;;;;;30.92;13.98;;;;;;;23.56;74.85;99889.19;4907682;29;20088;-82
2023/10/08 01:01:22;;;;;;;35.25;13.57;;;;;;;23.72;74.57;99886.59;4905333;29;20096;-82
2023/10/08 01:04:11;;;;;;;36.47;14.23;;;;;;;23.61;75.02;99880.38;4906446;29;20418;-82
2023/10/08 01:07:12;;;;;;;27.48;12.55;;;;;;;23.77;74.32;99886.63;4900767;29;20148;-82
2023/10/08 01:09:59;;;;;;;25.95;12.88;;;;;;;23.52;75.21;99878.19;4908732;29;20063;-82
2023/10/08 01:13:05;;;;;;;37.63;14.30;;;;;;;23.20;75.53;99875.56;4891833;29;20047;-81
2023/10/08 01:15:51;;;;;;;40.55;14.55;;;;;;;23.39;75.52;99898.22;4906160;29;20407;-80
2023/10/08 01:18:35;;;;;;;27.88;12.02;;;;;;;23.39;75.50;99884.03;4895243;29;20108;-81
2023/10/08 01:21:33;;;;;;;28.77;12.05;;;;;;;23.47;75.69;99891.56;4893830;29;20063;-81
2023/10/08 01:24:19;;;;;;;32.88;12.88;;;;;;;23.22;75.96;99879.63;4906846;29;20071;-82
2023/10/08 01:27:11;;;;;;;38.45;12.30;;;;;;;23.37;75.76;99891.50;4894933;29;20107;-80
2023/10/08 01:30:04;;;;;;;37.92;12.38;;;;;;;23.38;75.92;99893.09;4899223;29;20043;-81
2023/10/08 01:32:52;;;;;;;33.22;13.13;;;;;;;23.46;75.98;99895.31;4906049;29;20088;-81
2023/10/08 01:35:35;;;;;;;27.90;12.18;;;;;;;23.36;75.80;99885.34;4912085;29;20055;-81
2023/10/08 01:38:23;;;;;;;38.97;13.30;;;;;;;23.18;76.56;99883.84;4909167;29;20075;-81
2023/10/08 01:41:29;;;;;;;34.45;13.23;;;;;;;23.19;76.70;99873.97;4912150;29;20092;-81
2023/10/08 01:44:13;;;;;;;34.70;12.20;;;;;;;23.14;76.92;99871.25;4894971;29;20052;-81
2023/10/08 01:46:58;;;;;;;39.22;12.73;;;;;;;22.92;77.40;99870.28;4891238;29;20047;-81
2023/10/08 01:49:46;;;;;;;25.70;11.23;;;;;;;23.14;77.09;99874.72;4902993;29;20058;-81
2023/10/08 01:52:30;;;;;;;33.47;10.95;;;;;;;23.19;76.59;99876.63;4904164;29;20087;-81
2023/10/08 01:55:18;;;;;;;31.48;12.55;;;;;;;23.13;77.25;99883.81;4905068;29;20044;-83
2023/10/08 01:58:03;;;;;;;27.85;12.55;;;;;;;22.82;77.96;99886.28;4906222;29;20055;-82
2023/10/08 02:00:48;;;;;;;34.10;12.63;;;;;;;23.02;77.51;99884.84;4910514;29;20517;-82
2023/10/08 02:03:33;;;;;;;28.90;12.52;;;;;;;23.25;76.77;99879.13;4907947;29;20047;-82
2023/10/08 02:06:17;;;;;;;30.40;12.65;;;;;;;23.02;77.46;99884.84;4892138;29;20050;-82
2023/10/08 02:09:07;;;;;;;34.65;13.60;;;;;;;22.86;77.76;99874.00;4906001;29;20501;-81
2023/10/08 02:11:53;;;;;;;34.95;12.82;;;;;;;23.03;77.42;99870.38;4905342;29;20107;-82
2023/10/08 02:14:40;;;;;;;37.80;13.82;;;;;;;22.88;77.67;99869.19;4909342;29;20054;-82
2023/10/08 02:17:24;;;;;;;35.50;14.15;;;;;;;23.04;77.60;99872.00;4910169;29;20084;-82
2023/10/08 02:20:09;;;;;;;31.80;13.20;;;;;;;23.05;78.03;99878.97;4895919;29;20063;-82
2023/10/08 02:22:54;;;;;;;32.47;12.55;;;;;;;23.18;77.77;99873.13;4906507;29;20131;-82
2023/10/08 02:25:39;;;;;;;29.25;13.30;;;;;;;23.18;77.93;99873.13;4909389;29;20096;-83
2023/10/08 02:28:25;;;;;;;28.65;13.05;;;;;;;23.29;77.55;99868.72;4901147;29;20554;-82
2023/10/08 02:31:10;;;;;;;31.90;12.82;;;;;;;23.37;77.26;99867.38;4903722;29;20072;-82
2023/10/08 02:33:54;;;;;;;27.40;13.13;;;;;;;23.36;77.38;99853.19;4910854;29;20109;-82
2023/10/08 02:36:42;;;;;;;28.00;13.05;;;;;;;23.50;76.96;99858.09;4904402;29;20452;-84
2023/10/08 02:39:27;;;;;;;27.88;11.95;;;;;;;23.39;76.80;99859.91;4904889;29;20419;-83
2023/10/08 02:42:14;;;;;;;31.25;11.52;;;;;;;23.28;77.22;99867.06;4892513;29;20047;-82
2023/10/08 02:45:01;;;;;;;29.98;11.60;;;;;;;23.18;77.28;99861.63;4893503;29;20071;-82
2023/10/08 02:47:45;;;;;;;20.90;11.50;;;;;;;23.11;77.52;99867.22;4892228;29;20406;-82
2023/10/08 02:50:29;;;;;;;26.35;11.98;;;;;;;23.04;77.54;99866.63;4905698;29;20554;-82
2023/10/08 02:53:23;;;;;;;27.20;12.07;;;;;;;23.01;77.81;99867.94;4904169;29;20402;-82
2023/10/08 02:56:12;;;;;;;28.73;11.73;;;;;;;22.99;77.89;99869.25;4890138;29;20541;-82
2023/10/08 02:58:56;;;;;;;32.83;13.02;;;;;;;23.03;77.63;99862.34;4890736;29;20042;-81
2023/10/08 03:01:40;;;;;;;36.88;13.48;;;;;;;22.89;77.80;99865.44;4905804;29;20050;-83
2023/10/08 03:04:27;;;;;;;31.38;13.05;;;;;;;22.87;77.88;99872.94;4906348;29;20051;-82
2023/10/08 03:07:21;;;;;;;34.35;12.73;;;;;;;22.69;78.43;99879.47;4887803;29;20075;-82
2023/10/08 03:10:06;;;;;;;30.85;13.32;;;;;;;22.71;78.42;99885.41;4902294;29;20452;-82
2023/10/08 03:12:50;;;;;;;29.33;13.23;;;;;;;22.60;78.98;99895.19;4905898;29;20394;-83
2023/10/08 03:15:41;;;;;;;35.72;12.68;;;;;;;22.68;78.35;99885.88;4893814;29;20059;-82
2023/10/08 03:18:25;;;;;;;29.83;13.38;;;;;;;22.70;79.08;99888.31;4900635;29;20051;-81
2023/10/08 03:21:33;;;;;;;25.85;11.80;;;;;;;22.74;79.05;99884.06;4888991;29;20094;-82
2023/10/08 03:24:37;;;;;;;22.55;12.38;;;;;;;22.75;79.23;99889.16;4905020;29;20096;-81
2023/10/08 03:27:20;;;;;;;27.53;12.67;;;;;;;22.87;79.17;99890.84;4907272;29;20476;-81
2023/10/08 03:30:06;;;;;;;27.58;13.75;;;;;;;22.80;79.03;99883.06;4908658;29;20095;-83
2023/10/08 03:32:54;;;;;;;36.63;13.63;;;;;;;22.84;79.49;99889.50;4900385;29;20116;-82
2023/10/08 03:35:40;;;;;;;34.28;14.13;;;;;;;23.00;79.06;99893.09;4906951;29;20056;-83
2023/10/08 03:39:09;;;;;;;35.15;13.98;;;;;;;22.90;79.32;99899.19;4908452;29;20051;-83
2023/10/08 03:41:39;;;;;;;36.47;13.13;;;;;;;23.30;78.86;99897.09;4908532;29;20076;-82
2023/10/08 03:44:24;;;;;;;35.85;14.30;;;;;;;23.08;79.32;99895.28;4901053;29;20124;-82
2023/10/08 03:47:11;;;;;;;30.63;12.50;;;;;;;23.32;78.83;99894.97;4886922;29;20043;-83
2023/10/08 03:49:56;;;;;;;32.28;13.27;;;;;;;23.43;78.60;99882.44;4905217;29;20071;-82
2023/10/08 03:52:42;;;;;;;;;;;;;;;23.50;78.17;99887.56;4901644;29;20510;-82
2023/10/08 03:55:27;;;;;;;31.70;13.02;;;;;;;23.35;78.47;99878.38;4888983;29;20010;-82
2023/10/08 03:58:27;;;;;;;33.95;14.75;;;;;;;23.33;78.38;99874.34;4899666;29;20055;-82
2023/10/08 04:01:18;;;;;;;40.70;15.77;;;;;;;23.19;78.65;99884.66;4904582;29;20079;-82
2023/10/08 04:04:02;;;;;;;42.03;16.15;;;;;;;23.17;79.04;99895.63;4901927;29;20387;-82
2023/10/08 04:06:54;;;;;;;42.35;16.20;;;;;;;23.04;79.39;99880.81;4903202;29;20052;-82
2023/10/08 04:09:39;;;;;;;41.22;16.38;;;;;;;23.12;79.36;99874.19;4893521;29;20111;-81
2023/10/08 04:12:26;;;;;;;33.38;14.13;;;;;;;23.22;78.96;99886.81;4888765;29;20154;-82
2023/10/08 04:15:16;;;;;;;38.35;16.00;;;;;;;23.20;79.35;99888.97;4903613;29;20046;-82
2023/10/08 04:18:02;;;;;;;39.28;17.35;;;;;;;23.11;79.21;99893.97;4902921;29;20082;-82
2023/10/08 04:21:00;;;;;;;39.47;16.98;;;;;;;23.19;79.33;99885.50;4906977;29;20083;-81
2023/10/08 04:23:44;;;;;;;50.30;19.77;;;;;;;23.19;79.22;99903.41;4903638;29;20102;-81
2023/10/08 04:26:29;;;;;;;46.80;19.65;;;;;;;23.30;79.09;99889.06;4905452;29;20103;-82
2023/10/08 04:29:16;;;;;;;52.25;22.40;;;;;;;23.35;79.13;99893.63;4903651;29;20446;-83
2023/10/08 04:32:01;;;;;;;55.38;22.77;;;;;;;23.24;79.42;99898.91;4888805;29;20582;-82
2023/10/08 04:34:47;;;;;;;61.47;26.88;;;;;;;23.17;79.37;99903.66;4905901;29;20095;-84
2023/10/08 04:37:33;;;;;;;62.20;27.35;;;;;;;23.11;79.52;99886.78;4904276;29;20047;-82
2023/10/08 04:40:17;;;;;;;55.65;25.98;;;;;;;23.12;79.84;99900.97;4888188;29;20047;-82
2023/10/08 04:43:02;;;;;;;53.88;25.23;;;;;;;23.08;79.83;99900.66;4906492;29;20090;-83
2023/10/08 04:45:46;;;;;;;63.22;26.05;;;;;;;23.05;79.80;99895.03;4889201;29;20051;-82
2023/10/08 04:48:32;;;;;;;57.90;25.52;;;;;;;23.07;79.69;99895.56;4906811;29;20059;-82
2023/10/08 04:51:18;;;;;;;59.50;27.85;;;;;;;23.02;80.08;99907.03;4893390;29;20078;-82
2023/10/08 04:54:05;;;;;;;60.50;27.67;;;;;;;22.94;80.31;99899.50;4907447;29;20462;-83
2023/10/08 04:56:49;;;;;;;61.30;25.75;;;;;;;23.07;79.84;99882.97;4910809;29;20184;-82
2023/10/08 04:59:36;;;;;;;66.13;30.23;;;;;;;23.32;79.69;99888.78;4905787;29;20118;-82
2023/10/08 05:05:22;;;;;;;78.93;32.35;;;;;;;23.32;79.34;99883.44;4911641;29;20075;-82
2023/10/08 05:08:32;;;;;;;72.70;31.63;;;;;;;23.50;78.90;99868.81;4891464;29;20042;-83
2023/10/08 05:11:36;;;;;;;90.32;35.70;;;;;;;23.04;79.90;99869.31;4893917;29;20112;-83
2023/10/08 05:23:20;;;;;;;84.18;36.00;;;;;;;22.74;80.98;99898.25;4908251;29;19939;-82
2023/10/08 05:29:39;;;;;;;85.45;36.05;;;;;;;22.66;81.70;99899.53;4906173;29;20051;-84
2023/10/08 05:32:37;;;;;;;81.00;36.72;;;;;;;22.88;81.24;99893.28;4907575;29;20051;-84
2023/10/08 05:47:12;;;;;;;79.30;35.33;;;;;;;23.02;81.05;99871.44;4906037;29;20046;-83
2023/10/08 05:53:14;;;;;;;68.93;34.17;;;;;;;23.11;80.65;99865.34;4908695;29;20077;-83
2023/10/08 05:56:16;;;;;;;65.00;31.85;;;;;;;23.11;80.36;99856.50;4896830;29;20071;-83
2023/10/08 05:59:14;;;;;;;69.13;32.97;;;;;;;23.13;80.56;99859.72;4896560;29;20063;-83
2023/10/08 06:02:06;;;;;;;78.47;34.13;;;;;;;23.12;80.51;99855.44;4901370;29;20048;-83
2023/10/08 06:05:09;;;;;;;73.80;34.65;;;;;;;23.05;80.58;99857.53;4906542;29;20082;-83
2023/10/08 06:16:41;;;;;;;81.45;34.50;;;;;;;23.19;80.45;99880.13;4904192;29;20095;-81
2023/10/08 06:19:25;;;;;;;75.82;34.30;;;;;;;23.16;80.29;99869.91;4894017;29;20092;-83
2023/10/08 06:22:10;;;;;;;73.55;35.08;;;;;;;23.13;80.37;99864.28;4902129;29;20533;-83
2023/10/08 06:25:15;;;;;;;62.70;32.10;;;;;;;23.17;80.51;99876.88;4905472;29;20513;-82
2023/10/08 06:27:58;;;;;;;77.78;34.88;;;;;;;23.16;80.38;99883.31;4903336;29;20099;-84
2023/10/08 06:30:42;;;;;;;87.47;36.05;;;;;;;23.43;80.06;99876.25;4907096;29;20035;-83
2023/10/08 06:33:30;;;;;;;86.10;36.33;;;;;;;23.25;80.09;99868.41;4904585;29;20113;-82
2023/10/08 06:36:15;;;;;;;74.47;33.17;;;;;;;23.28;80.49;99872.44;4882414;29;20043;-83
2023/10/08 06:38:59;;;;;;;63.70;33.33;;;;;;;23.32;80.38;99880.75;4907431;29;20406;-83
2023/10/08 06:41:43;;;;;;;71.55;31.92;;;;;;;23.33;80.30;99877.00;4906499;29;20048;-82
2023/10/08 06:44:28;;;;;;;67.57;30.10;;;;;;;23.34;80.25;99879.44;4906826;29;20123;-83
2023/10/08 06:47:15;;;;;;;75.13;33.08;;;;;;;23.37;80.26;99886.97;4903085;29;20051;-84
2023/10/08 06:49:59;;;;;;;76.70;31.52;;;;;;;23.31;80.15;99882.66;4891705;29;20088;-84
2023/10/08 06:52:43;;;;;;;70.93;31.02;;;;;;;23.32;80.28;99864.69;4889830;29;20052;-83
2023/10/08 06:55:27;;;;;;;76.65;31.88;;;;;;;23.30;80.31;99842.72;4903657;29;20063;-83
2023/10/08 06:58:12;;;;;;;83.88;33.95;;;;;;;23.33;80.66;99861.75;4888705;29;20407;-83
2023/10/08 07:00:58;;;;;;;76.25;31.73;;;;;;;23.42;80.34;99850.53;4906807;29;20136;-81
2023/10/08 07:03:43;;;;;;;74.68;29.45;;;;;;;23.38;80.15;99839.53;4890614;29;20509;-81
2023/10/08 07:06:31;;;;;;;66.35;29.52;;;;;;;23.39;80.12;99852.69;4902601;29;20538;-82
2023/10/08 07:12:14;;;;;;;69.45;28.55;;;;;;;23.47;80.17;99848.69;4899756;29;20059;-82
2023/10/08 07:14:58;;;;;;;62.83;27.40;;;;;;;23.60;79.95;99852.78;4902745;29;20047;-82
2023/10/08 07:17:43;;;;;;;60.58;24.23;;;;;;;23.44;80.33;99859.13;4903173;29;20047;-82
2023/10/08 07:20:28;;;;;;;58.15;23.15;;;;;;;23.49;80.26;99859.97;4889405;29;20056;-80
2023/10/08 07:24:17;;;;;;;60.33;26.27;;;;;;;23.61;79.96;99856.28;4893691;29;20142;-81
2023/10/08 07:26:26;;;;;;;69.93;27.45;;;;;;;23.65;79.81;99865.41;4903177;29;20047;-80
2023/10/08 07:29:11;;;;;;;69.50;26.35;;;;;;;23.61;80.03;99865.09;4906915;29;20043;-80
2023/10/08 07:31:55;;;;;;;69.32;27.33;;;;;;;23.78;80.01;99869.47;4885773;29;20099;-80
2023/10/08 07:34:39;;;;;;;57.90;25.23;;;;;;;23.88;79.10;99882.09;4898996;29;20394;-80
2023/10/08 07:37:23;;;;;;;52.47;24.65;;;;;;;24.04;79.31;99894.53;4904195;29;20055;-80
2023/10/08 07:40:11;;;;;;;43.00;20.33;;;;;;;24.02;78.91;99901.22;4902772;29;20055;-82
2023/10/08 07:42:56;;;;;;;50.38;20.80;;;;;;;24.14;78.92;99899.13;4903619;29;20095;-81
2023/10/08 07:45:45;;;;;;;45.33;19.98;;;;;;;24.22;78.37;99889.75;4891552;29;20051;-81
2023/10/08 07:48:29;;;;;;;45.10;19.45;;;;;;;24.34;77.92;99898.34;4897767;29;20063;-81
2023/10/08 07:51:14;;;;;;;51.25;20.02;;;;;;;24.38;78.10;99899.44;4900283;29;20083;-81
2023/10/08 07:53:59;;;;;;;48.55;19.95;;;;;;;24.39;77.91;99901.06;4904249;29;20051;-83
2023/10/08 07:56:43;;;;;;;47.60;21.00;;;;;;;24.50;77.64;99887.63;4903386;29;20759;-83
2023/10/08 07:59:27;;;;;;;41.97;21.50;;;;;;;24.63;77.78;99889.81;4909117;29;20079;-82
2023/10/08 08:02:11;;;;;;;50.95;23.83;;;;;;;24.62;77.04;99884.69;4902839;29;20524;-81
2023/10/08 08:04:56;;;;;;;45.25;20.70;;;;;;;24.76;77.29;99883.13;4903596;29;20072;-81
2023/10/08 08:07:40;;;;;;;46.47;20.85;;;;;;;24.93;77.12;99882.06;4886306;29;20043;-82
2023/10/08 08:10:24;;;;;;;44.90;22.10;;;;;;;24.93;76.74;99882.06;4888803;29;20108;-82
2023/10/08 08:13:09;;;;;;;41.63;19.23;;;;;;;24.83;76.59;99877.50;4906453;29;20089;-82
2023/10/08 08:15:58;;;;;;;41.28;19.88;;;;;;;25.07;76.03;99874.25;4898467;29;20067;-83
2023/10/08 08:18:55;;;;;;;40.30;19.42;;;;;;;25.30;76.00;99874.72;4893823;29;20046;-85
2023/10/08 08:21:44;;;;;;;39.47;19.10;;;;;;;25.02;75.68;99868.88;4912562;29;20391;-85
2023/10/08 08:24:29;;;;;;;38.92;18.05;;;;;;;25.21;75.92;99872.63;4898902;29;20471;-86
2023/10/08 08:27:23;;;;;;;41.28;18.52;;;;;;;25.11;75.89;99867.25;4887977;29;20503;-83
2023/10/08 08:30:15;;;;;;;33.03;17.17;;;;;;;25.14;74.93;99866.69;4887246;29;20076;-82
2023/10/08 08:33:00;;;;;;;32.03;16.20;;;;;;;25.41;74.93;99870.94;4906709;29;20043;-81
2023/10/08 08:35:45;;;;;;;37.53;16.15;;;;;;;25.54;74.61;99877.66;4885319;29;20055;-81
2023/10/08 08:38:32;;;;;;;35.30;18.38;;;;;;;25.55;74.48;99876.56;4887500;29;20088;-81
2023/10/08 08:41:20;;;;;;;33.10;16.63;;;;;;;25.60;74.50;99884.63;4904227;29;20059;-80
2023/10/08 08:44:06;;;;;;;36.28;16.83;;;;;;;25.58;74.04;99880.59;4895690;29;20056;-79
2023/10/08 08:46:51;;;;;;;34.42;16.70;;;;;;;25.58;73.93;99886.78;4901913;29;20059;-81
2023/10/08 08:49:39;;;;;;;30.17;14.98;;;;;;;25.81;74.04;99885.34;4889251;29;20047;-80
2023/10/08 08:52:24;;;;;;;30.15;14.30;;;;;;;25.87;73.74;99896.91;4904017;29;20059;-80
2023/10/08 08:55:14;;;;;;;29.83;14.40;;;;;;;25.81;73.61;99879.97;4902919;29;20072;-81
2023/10/08 08:57:59;;;;;;;29.42;14.00;;;;;;;26.24;72.79;99886.78;4904822;29;20059;-84
2023/10/08 09:00:47;;;;;;;32.35;14.50;;;;;;;26.46;72.19;99883.66;4893502;29;20555;-85
2023/10/08 09:03:31;;;;;;;27.25;13.95;;;;;;;26.47;72.11;99876.38;4892504;29;20050;-85
2023/10/08 09:06:15;;;;;;;30.90;13.02;;;;;;;26.46;72.00;99886.38;4884659;29;20112;-86
2023/10/08 09:09:21;;;;;;;28.92;14.20;;;;;;;26.31;72.16;99887.25;4907850;29;20042;-86
2023/10/08 09:12:10;;;;;;;27.42;12.77;;;;;;;26.47;71.81;99900.59;4870720;29;20048;-88
2023/10/08 09:15:02;;;;;;;22.35;10.98;;;;;;;26.48;72.10;99912.97;4867189;29;20181;-87
2023/10/08 09:17:46;;;;;;;23.70;13.38;;;;;;;26.33;72.19;99917.38;4879675;29;20078;-86
2023/10/08 09:20:31;;;;;;;28.63;12.45;;;;;;;26.32;72.09;99918.47;4868710;29;20045;-87
2023/10/08 09:23:21;;;;;;;28.33;14.38;;;;;;;26.20;72.83;99907.25;4871136;29;20052;-86
2023/10/08 09:26:08;;;;;;;23.80;12.30;;;;;;;26.20;71.83;99880.34;4867413;29;20054;-87
2023/10/08 09:28:53;;;;;;;26.67;12.80;;;;;;;26.02;72.34;99870.97;4865609;29;20121;-87
2023/10/08 09:31:37;;;;;;;30.80;13.68;;;;;;;26.02;72.63;99885.25;4866548;29;20048;-86
2023/10/08 09:34:25;;;;;;;27.08;14.07;;;;;;;26.07;72.57;99873.66;4866833;29;20059;-83
2023/10/08 09:37:10;;;;;;;25.00;13.15;;;;;;;26.03;73.30;99876.09;4866489;29;20077;-84
2023/10/08 09:39:56;;;;;;;27.55;14.60;;;;;;;26.06;73.12;99867.47;4874036;29;20052;-83
2023/10/08 09:42:42;;;;;;;22.80;14.00;;;;;;;26.09;73.11;99874.19;4873757;29;20084;-83
2023/10/08 09:45:28;;;;;;;28.20;13.82;;;;;;;25.95;73.40;99865.94;4871315;29;20064;-83
2023/10/08 09:48:12;;;;;;;32.03;14.85;;;;;;;25.91;73.55;99859.47;4867646;29;20114;-82
2023/10/08 09:50:58;;;;;;;33.15;15.98;;;;;;;26.22;72.97;99862.03;4866809;29;20118;-83
2023/10/08 09:54:10;;;;;;;32.83;15.68;;;;;;;26.30;73.21;99880.25;4866399;29;20093;-83
2023/10/08 09:56:57;;;;;;;37.45;15.70;;;;;;;26.31;72.27;99878.38;4873828;29;20059;-83
2023/10/08 09:59:43;;;;;;;24.85;13.35;;;;;;;26.75;71.84;99879.41;4866664;29;20048;-83
2023/10/08 10:02:31;;;;;;;33.15;16.52;;;;;;;26.78;71.64;99895.00;4871835;29;20052;-82
2023/10/08 10:05:21;;;;;;;30.20;15.05;;;;;;;27.11;70.42;99889.88;4866810;29;20109;-82
2023/10/08 10:08:09;;;;;;;26.45;14.05;;;;;;;27.37;69.88;99879.63;4867865;29;20121;-83
2023/10/08 10:11:00;;;;;;;31.88;14.63;;;;;;;27.61;70.10;99886.97;4888692;29;20203;-83
2023/10/08 10:13:51;;;;;;;33.55;14.75;;;;;;;27.87;69.94;99899.31;4891665;29;20068;-83
2023/10/08 10:16:37;;;;;;;28.33;13.48;;;;;;;28.02;69.81;99899.09;4895732;29;20176;-83
2023/10/08 10:19:22;;;;;;;30.17;14.55;;;;;;;27.88;70.17;99887.41;4892327;29;20047;-83
2023/10/08 10:22:11;;;;;;;30.75;15.27;;;;;;;28.06;69.16;99893.94;4912249;29;20171;-83
2023/10/08 10:25:03;;;;;;;30.00;13.77;;;;;;;28.15;69.51;99892.19;4907448;29;20052;-84
2023/10/08 10:27:51;;;;;;;25.75;13.55;;;;;;;28.36;69.10;99898.13;4902511;29;20104;-83
2023/10/08 10:30:35;;;;;;;25.33;13.45;;;;;;;28.61;68.13;99893.41;4893150;29;20079;-83
2023/10/08 10:33:19;;;;;;;33.10;15.80;;;;;;;28.56;67.83;99885.41;4892864;29;20100;-82
2023/10/08 10:36:05;;;;;;;24.15;13.60;;;;;;;28.63;67.88;99880.41;4902929;29;20050;-83
2023/10/08 10:38:50;;;;;;;30.92;13.88;;;;;;;28.96;66.59;99871.50;4906598;29;20462;-83
2023/10/08 10:41:34;;;;;;;29.42;13.27;;;;;;;29.02;64.78;99867.66;4892371;29;20102;-83
2023/10/08 10:44:19;;;;;;;26.88;12.93;;;;;;;28.62;65.85;99857.22;4903469;29;20050;-83
2023/10/08 10:52:53;;;;;;;27.40;12.50;;;;;;;28.61;65.67;99860.22;4905680;29;20068;-83
2023/10/08 10:55:37;;;;;;;21.52;11.77;;;;;;;28.42;64.44;99844.03;4905568;29;20051;-83
2023/10/08 10:58:24;;;;;;;27.55;11.82;;;;;;;28.60;65.07;99847.81;4894218;29;20525;-84
2023/10/08 11:01:21;;;;;;;26.55;12.30;;;;;;;28.75;64.72;99852.94;4905842;29;20048;-83
2023/10/08 11:04:06;;;;;;;27.08;11.45;;;;;;;29.05;64.93;99855.41;4910052;29;20455;-83
2023/10/08 11:06:51;;;;;;;27.73;13.10;;;;;;;29.04;64.70;99851.94;4907620;29;20402;-84
2023/10/08 11:09:38;;;;;;;21.95;11.27;;;;;;;29.10;65.07;99857.22;4903443;29;20039;-83
2023/10/08 11:12:23;;;;;;;23.88;12.25;;;;;;;29.12;64.71;99863.13;4907795;29;20561;-84
2023/10/08 11:15:15;;;;;;;22.42;12.25;;;;;;;28.95;64.72;99859.09;4904020;29;20048;-83
2023/10/08 11:17:59;;;;;;;19.58;12.23;;;;;;;29.06;64.58;99852.44;4908739;29;20076;-84
2023/10/08 11:20:54;;;;;;;20.42;12.18;;;;;;;28.92;64.35;99860.53;4890690;29;20047;-84
2023/10/08 11:23:43;;;;;;;27.70;14.60;;;;;;;28.83;64.67;99851.47;4904622;29;20399;-83
2023/10/08 11:26:38;;;;;;;23.98;12.93;;;;;;;29.01;64.25;99846.31;4886400;29;20051;-83
2023/10/08 11:29:25;;;;;;;23.42;12.82;;;;;;;28.91;64.81;99831.91;4902399;29;20455;-84
2023/10/08 11:32:12;;;;;;;25.88;13.77;;;;;;;28.89;65.05;99827.88;4907626;29;20048;-83
2023/10/08 11:34:59;;;;;;;26.15;13.55;;;;;;;28.90;65.21;99829.47;4902061;29;20546;-84
2023/10/08 11:37:50;;;;;;;23.58;12.10;;;;;;;28.98;64.84;99836.09;4892095;29;20455;-83
2023/10/08 11:40:51;;;;;;;26.38;12.85;;;;;;;28.85;64.19;99822.25;4904740;29;20463;-83
2023/10/08 11:43:36;;;;;;;20.42;10.80;;;;;;;28.83;63.36;99818.28;4902627;29;20065;-84
2023/10/08 11:46:25;;;;;;;26.88;11.75;;;;;;;28.95;62.28;99817.78;4907407;29;20444;-83
2023/10/08 11:49:17;;;;;;;24.90;11.43;;;;;;;29.10;61.22;99809.38;4905757;29;20052;-83
2023/10/08 11:52:02;;;;;;;27.27;11.68;;;;;;;29.18;62.37;99800.56;4904070;29;20096;-83
2023/10/08 11:54:48;;;;;;;20.48;10.45;;;;;;;29.28;60.86;99815.78;4902326;29;20038;-83
2023/10/08 11:57:35;;;;;;;19.75;10.30;;;;;;;29.40;60.48;99814.47;4908989;29;20163;-83
2023/10/08 12:00:19;;;;;;;21.15;11.50;;;;;;;29.36;59.48;99803.47;4904267;29;20572;-83
2023/10/08 12:03:05;;;;;;;22.27;10.05;;;;;;;29.52;59.44;99812.06;4904464;29;20095;-82
2023/10/08 12:05:52;;;;;;;20.40;9.88;;;;;;;29.57;59.18;99801.13;4906806;29;20406;-81
2023/10/08 12:08:39;;;;;;;16.83;9.00;;;;;;;29.77;59.29;99804.50;4894895;29;20047;-82
2023/10/08 12:11:31;;;;;;;17.08;9.25;;;;;;;29.98;59.22;99795.94;4904398;29;20055;-81
2023/10/08 12:14:15;;;;;;;18.08;10.25;;;;;;;30.08;58.02;99797.63;4905947;29;20052;-82
2023/10/08 12:17:00;;;;;;;15.63;9.30;;;;;;;30.40;57.55;99812.00;4903198;29;20064;-82
2023/10/08 12:19:45;;;;;;;20.55;9.30;;;;;;;30.06;57.73;99806.84;4907366;29;20463;-86
2023/10/08 12:22:29;;;;;;;18.00;9.43;;;;;;;30.30;57.33;99805.75;4905747;29;20092;-87
2023/10/08 12:25:13;;;;;;;16.20;9.63;;;;;;;30.44;58.38;99797.53;4909830;29;20038;-87
2023/10/08 12:28:02;;;;;;;16.23;8.85;;;;;;;30.69;58.05;99791.81;4891733;29;20056;-86
2023/10/08 12:30:46;;;;;;;17.23;8.68;;;;;;;30.57;57.63;99790.44;4902839;29;20043;-86
2023/10/08 12:33:31;;;;;;;13.73;7.30;;;;;;;30.80;56.18;99789.63;4908844;29;20398;-88
2023/10/08 12:36:16;;;;;;;16.73;8.50;;;;;;;30.84;56.03;99768.91;4907543;29;20111;-88
2023/10/08 12:39:08;;;;;;;13.93;8.13;;;;;;;30.77;56.50;99755.81;4890935;29;20135;-86
2023/10/08 12:41:53;;;;;;;15.90;8.52;;;;;;;30.87;55.29;99750.13;4894585;29;20118;-87
2023/10/08 12:44:37;;;;;;;14.98;7.88;;;;;;;31.11;56.13;99751.63;4892486;29;20092;-86
2023/10/08 12:47:21;;;;;;;14.20;8.25;;;;;;;31.26;55.92;99763.16;4906516;29;20038;-87
2023/10/08 12:50:07;;;;;;;16.05;8.68;;;;;;;31.46;56.67;99759.84;4890623;29;20087;-87
2023/10/08 12:52:55;;;;;;;13.35;7.53;;;;;;;31.30;54.28;99758.69;4910953;29;20088;-86
2023/10/08 12:55:39;;;;;;;12.60;7.00;;;;;;;31.52;54.46;99756.97;4909020;29;20517;-87
2023/10/08 12:58:25;;;;;;;15.00;7.95;;;;;;;31.70;53.38;99761.28;4908111;29;20483;-87
2023/10/08 13:01:13;;;;;;;10.70;6.57;;;;;;;31.61;54.23;99760.47;4897100;29;20043;-87
2023/10/08 13:04:00;;;;;;;13.00;6.65;;;;;;;31.74;54.37;99754.09;4889856;29;20044;-86
2023/10/08 13:06:45;;;;;;;13.73;7.47;;;;;;;31.80;55.83;99756.66;4904317;29;20095;-87
2023/10/08 13:09:36;;;;;;;14.68;8.30;;;;;;;31.70;57.03;99750.44;4912234;29;20086;-88
2023/10/08 13:12:20;;;;;;;13.38;8.45;;;;;;;31.64;57.19;99743.53;4908742;29;20040;-87
2023/10/08 13:15:06;;;;;;;14.07;8.30;;;;;;;31.70;57.41;99738.75;4891437;29;20077;-87
2023/10/08 13:17:50;;;;;;;17.63;9.05;;;;;;;31.51;58.65;99749.94;4916181;29;20042;-87
2023/10/08 13:20:34;;;;;;;14.63;8.70;;;;;;;31.40;57.48;99744.81;4900138;29;20153;-86
2023/10/08 13:23:20;;;;;;;19.60;9.20;;;;;;;31.45;57.57;99752.81;4895322;29;20509;-87
2023/10/08 13:26:06;;;;;;;16.40;9.20;;;;;;;31.44;57.87;99739.56;4905520;29;20064;-86
2023/10/08 13:28:51;;;;;;;15.18;8.90;;;;;;;31.32;56.46;99748.34;4915148;29;20095;-87
2023/10/08 13:31:38;;;;;;;14.18;8.98;;;;;;;31.11;57.44;99742.66;4913662;29;20042;-86
2023/10/08 13:34:22;;;;;;;16.25;8.63;;;;;;;31.21;57.77;99758.69;4895008;29;20131;-88
2023/10/08 13:37:06;;;;;;;17.48;9.35;;;;;;;31.17;57.26;99749.56;4913896;29;20055;-86
2023/10/08 13:39:50;;;;;;;18.05;8.20;;;;;;;30.80;57.13;99728.09;4891042;29;20047;-85
2023/10/08 13:42:34;;;;;;;12.23;7.28;;;;;;;30.68;52.90;99738.75;4915314;29;20051;-86